Time;durP1;ratioP1;P1;durP2;ratioP2;P2;SDS_P1;SDS_P2;PMS_P1;PMS_P2;Temp;Humidity;BMP_temperature;BMP_pressure;BME280_temperature;BME280_humidity;BME280_pressure;Samples;Min_cycle;Max_cycle;Signal;HPM_P1;HPM_P2
2021/10/13 07:01:01;;;;;;;8.47;5.90;;;9.10;99.90;;;;;;5100149;27;20341;-76
2021/10/13 07:03:27;;;;;;;7.33;2.90;;;9.00;99.90;;;;;;5086238;28;20123;-72
2021/10/13 07:05:52;;;;;;;8.00;2.80;;;9.10;99.90;;;;;;5088844;28;20044;-82
2021/10/13 07:08:18;;;;;;;6.93;2.27;;;9.10;99.90;;;;;;5089272;28;20054;-76
2021/10/13 07:10:43;;;;;;;8.77;1.87;;;9.20;99.90;;;;;;5069373;28;20082;-79
2021/10/13 07:13:09;;;;;;;6.13;1.87;;;9.30;99.90;;;;;;5070345;28;20055;-79
2021/10/13 07:15:35;;;;;;;7.47;2.30;;;9.30;99.90;;;;;;5068118;28;20489;-75
2021/10/13 07:18:01;;;;;;;12.53;3.10;;;9.40;99.90;;;;;;5085929;28;20041;-77
2021/10/13 07:20:30;;;;;;;6.77;2.40;;;9.50;99.90;;;;;;5067960;28;20079;-76
2021/10/13 07:22:57;;;;;;;9.80;2.70;;;9.60;99.90;;;;;;5085595;28;20041;-73
2021/10/13 07:25:25;;;;;;;8.60;1.67;;;9.70;99.90;;;;;;5067914;28;20055;-73
2021/10/13 07:27:51;;;;;;;7.47;1.80;;;9.80;99.90;;;;;;5086054;28;20112;-75
2021/10/13 07:30:21;;;;;;;7.47;2.00;;;9.90;99.90;;;;;;5067243;28;20131;-72
2021/10/13 07:32:47;;;;;;;6.57;1.73;;;9.90;99.90;;;;;;5067516;28;20052;-76
2021/10/13 07:35:13;;;;;;;6.77;1.87;;;9.90;99.90;;;;;;5069405;28;20154;-76
2021/10/13 07:37:40;;;;;;;7.53;1.50;;;10.00;99.90;;;;;;5085481;28;20036;-79
2021/10/13 07:40:06;;;;;;;6.87;1.57;;;10.00;99.90;;;;;;5087236;28;20511;-77
2021/10/13 07:42:32;;;;;;;8.60;1.70;;;10.10;99.90;;;;;;5069526;28;20361;-80
2021/10/13 07:44:58;;;;;;;6.53;1.43;;;10.20;99.90;;;;;;5068149;28;20052;-76
2021/10/13 07:47:24;;;;;;;6.17;1.40;;;10.30;99.90;;;;;;5070514;28;20392;-79
2021/10/13 07:49:50;;;;;;;8.00;1.50;;;10.40;99.90;;;;;;5070156;28;20044;-80
2021/10/13 07:52:16;;;;;;;6.23;1.40;;;10.50;99.90;;;;;;5069272;28;20048;-82
2021/10/13 07:54:42;;;;;;;3.37;1.37;;;10.50;99.90;;;;;;5069077;28;20044;-76
2021/10/13 07:57:07;;;;;;;3.60;1.20;;;10.60;99.90;;;;;;5068100;28;20063;-81
2021/10/13 07:59:33;;;;;;;6.10;1.20;;;10.70;99.90;;;;;;5070600;28;20078;-81
2021/10/13 08:01:59;;;;;;;5.07;1.23;;;10.80;99.90;;;;;;5087034;28;20054;-83
2021/10/13 08:04:25;;;;;;;6.67;1.27;;;10.90;99.90;;;;;;5067338;28;20320;-77
2021/10/13 08:06:52;;;;;;;7.67;1.33;;;11.00;99.90;;;;;;5069738;28;20051;-82
2021/10/13 08:09:18;;;;;;;4.37;1.00;;;11.10;99.90;;;;;;5085600;28;20560;-81
2021/10/13 08:11:44;;;;;;;5.13;1.47;;;11.20;99.90;;;;;;5058032;28;20048;-77
2021/10/13 08:14:10;;;;;;;6.03;1.70;;;11.30;99.90;;;;;;5071672;28;20143;-78
2021/10/13 08:16:39;;;;;;;8.33;1.40;;;11.40;99.90;;;;;;5054722;28;20056;-79
2021/10/13 08:19:05;;;;;;;7.87;1.30;;;11.50;99.90;;;;;;5054240;28;20077;-78
2021/10/13 08:21:30;;;;;;;6.53;2.10;;;11.60;99.90;;;;;;5057462;28;20083;-81
2021/10/13 08:23:56;;;;;;;3.33;0.80;;;11.70;99.80;;;;;;5065962;28;20084;-82
2021/10/13 08:26:22;;;;;;;4.57;0.87;;;11.80;99.60;;;;;;5081545;28;20044;-73
2021/10/13 08:28:47;;;;;;;5.00;1.00;;;11.90;99.50;;;;;;5053809;28;20059;-80
2021/10/13 08:31:14;;;;;;;7.90;1.33;;;12.00;99.30;;;;;;5071899;28;20049;-75
2021/10/13 08:33:41;;;;;;;6.90;0.90;;;12.10;99.10;;;;;;5052269;28;20044;-76
2021/10/13 08:36:07;;;;;;;6.57;1.37;;;12.20;99.00;;;;;;5052551;28;20458;-76
2021/10/13 08:38:32;;;;;;;6.47;1.20;;;12.30;98.70;;;;;;5053174;28;20131;-77
2021/10/13 08:40:58;;;;;;;7.53;1.60;;;12.30;98.40;;;;;;5052255;28;20145;-76
2021/10/13 08:43:24;;;;;;;9.23;1.30;;;12.40;98.30;;;;;;5071073;28;20124;-76
2021/10/13 08:45:49;;;;;;;5.07;1.10;;;12.40;98.30;;;;;;5052826;28;20086;-76
2021/10/13 08:48:15;;;;;;;4.97;0.80;;;12.50;98.20;;;;;;5070064;28;20355;-76
2021/10/13 08:50:41;;;;;;;5.20;1.50;;;12.40;97.40;;;;;;5052476;28;20548;-77
2021/10/13 08:53:12;;;;;;;6.00;1.00;;;12.40;97.50;;;;;;5051983;28;20071;-77
2021/10/13 08:55:39;;;;;;;4.07;1.23;;;12.40;97.50;;;;;;5052062;28;20055;-76
2021/10/13 08:58:11;;;;;;;4.70;1.20;;;12.40;97.40;;;;;;5070670;28;20048;-71
2021/10/13 09:00:39;;;;;;;8.20;0.80;;;12.40;97.40;;;;;;5070625;28;20049;-81
2021/10/13 09:03:04;;;;;;;5.03;1.40;;;12.50;97.40;;;;;;5053240;28;20052;-76
2021/10/13 09:05:31;;;;;;;10.00;0.90;;;12.50;97.20;;;;;;5052858;28;20592;-76
2021/10/13 09:07:57;;;;;;;4.20;0.80;;;12.60;97.10;;;;;;5051347;28;20047;-76
2021/10/13 09:10:33;;;;;;;6.37;1.33;;;12.60;97.10;;;;;;5053034;28;20045;-75
2021/10/13 09:13:01;;;;;;;4.57;1.00;;;12.70;96.90;;;;;;5049577;28;20052;-79
2021/10/13 09:15:28;;;;;;;4.17;1.30;;;12.70;96.80;;;;;;5061617;28;20040;-77
2021/10/13 09:18:00;;;;;;;4.00;1.53;;;12.80;96.80;;;;;;5051421;28;20072;-79
2021/10/13 09:20:27;;;;;;;;;;;12.80;96.50;;;;;;5035739;28;20049;-78
2021/10/13 09:23:04;;;;;;;6.30;0.87;;;12.80;95.50;;;;;;5033168;28;19973;-78
2021/10/13 09:25:31;;;;;;;3.53;0.60;;;12.90;96.40;;;;;;5035577;28;20091;-77
2021/10/13 09:27:58;;;;;;;7.53;1.30;;;12.90;96.30;;;;;;5035315;28;20404;-78
2021/10/13 09:30:33;;;;;;;3.80;1.10;;;12.90;96.00;;;;;;5052389;28;20092;-77
2021/10/13 09:33:16;;;;;;;5.10;0.93;;;13.00;95.70;;;;;;5034468;28;20071;-77
2021/10/13 09:35:49;;;;;;;4.07;1.00;;;13.00;95.60;;;;;;5052201;28;20095;-77
2021/10/13 09:38:22;;;;;;;6.97;0.90;;;13.10;95.60;;;;;;5053289;28;20045;-77
2021/10/13 09:40:49;;;;;;;4.13;0.73;;;13.20;95.40;;;;;;5034379;28;20095;-78
2021/10/13 09:43:34;;;;;;;3.07;0.90;;;13.20;95.20;;;;;;5034618;28;20389;-77
2021/10/13 10:22:18;;;;;;;4.20;0.50;;;13.20;94.20;;;;;;5106862;27;20345;-81
2021/10/13 10:24:54;;;;;;;4.53;0.60;;;13.20;94.40;;;;;;5107309;28;20059;-78
2021/10/13 10:27:32;;;;;;;4.13;0.80;;;13.20;94.60;;;;;;5100542;28;20084;-81
2021/10/13 10:30:07;;;;;;;4.43;0.60;;;13.20;94.80;;;;;;5106158;28;20093;-74
2021/10/13 10:32:33;;;;;;;2.50;0.40;;;13.20;94.60;;;;;;5108358;28;20067;-73
2021/10/13 10:35:05;;;;;;;2.33;0.60;;;13.20;94.70;;;;;;5108726;28;20051;-80
2021/10/13 10:37:48;;;;;;;4.85;0.75;;;13.10;94.80;;;;;;5108021;28;20103;-76
2021/10/13 10:40:26;;;;;;;5.23;0.67;;;13.20;94.90;;;;;;5107040;28;20043;-75
2021/10/13 10:43:07;;;;;;;1.90;0.40;;;13.30;94.60;;;;;;5107464;28;20052;-80
2021/10/13 10:45:42;;;;;;;4.53;0.70;;;13.50;94.40;;;;;;5109588;28;20040;-76
2021/10/13 10:48:13;;;;;;;4.97;0.80;;;13.60;94.00;;;;;;5104434;28;20051;-80
2021/10/13 10:50:47;;;;;;;2.37;0.80;;;13.60;93.90;;;;;;5104782;28;20063;-77
2021/10/13 10:53:31;;;;;;;3.73;0.60;;;13.60;93.80;;;;;;5108923;28;20066;-80
2021/10/13 10:56:00;;;;;;;4.50;0.90;;;13.70;93.50;;;;;;5108307;28;20507;-72
2021/10/13 10:58:31;;;;;;;4.80;0.97;;;13.70;93.40;;;;;;5105204;28;20389;-71
2021/10/13 11:01:17;;;;;;;4.68;0.77;;;13.60;93.00;;;;;;5099188;28;20184;-75
2021/10/13 11:03:43;;;;;;;6.50;0.87;;;13.70;92.70;;;;;;5108992;28;20047;-77
2021/10/13 11:06:23;;;;;;;4.43;0.70;;;13.60;93.00;;;;;;5109166;28;20353;-78
2021/10/13 11:08:53;;;;;;;3.27;0.70;;;13.60;93.20;;;;;;5107444;28;20410;-76
2021/10/13 11:11:20;;;;;;;6.70;1.23;;;13.60;93.70;;;;;;5142805;27;20469;-79
2021/10/13 11:14:01;;;;;;;3.07;0.57;;;13.60;93.80;;;;;;5109965;28;20124;-76
2021/10/13 11:16:28;;;;;;;3.40;0.97;;;13.50;93.50;;;;;;5104883;28;20054;-72
2021/10/13 11:19:15;;;;;;;2.03;0.47;;;13.50;93.40;;;;;;5100073;28;20044;-76
2021/10/13 11:21:42;;;;;;;3.27;0.57;;;13.50;93.20;;;;;;5103035;28;20056;-74
2021/10/13 11:24:08;;;;;;;4.27;0.87;;;13.50;93.30;;;;;;5087975;28;20041;-80
2021/10/13 11:26:34;;;;;;;2.10;0.50;;;13.50;93.10;;;;;;5088969;28;20048;-75
2021/10/13 11:29:00;;;;;;;4.90;0.90;;;13.60;92.70;;;;;;5089618;28;20048;-75
2021/10/13 11:31:25;;;;;;;4.03;1.07;;;13.70;92.80;;;;;;5100968;28;20162;-80
2021/10/13 11:34:04;;;;;;;1.17;0.30;;;13.90;92.30;;;;;;5095959;28;20499;-81
2021/10/13 11:36:29;;;;;;;3.73;0.80;;;14.00;91.00;;;;;;5093597;28;20058;-75
2021/10/13 11:38:56;;;;;;;3.17;0.60;;;14.10;90.70;;;;;;5094192;28;20048;-71
2021/10/13 11:41:21;;;;;;;5.80;1.37;;;14.30;90.90;;;;;;5094543;28;20468;-75
2021/10/13 11:43:47;;;;;;;3.40;0.60;;;14.40;90.80;;;;;;5091801;28;20051;-73
2021/10/13 11:46:17;;;;;;;6.57;0.80;;;14.60;90.40;;;;;;5092908;28;20480;-73
2021/10/13 11:48:43;;;;;;;5.40;0.77;;;14.80;90.00;;;;;;5093915;28;20495;-76
2021/10/13 11:51:13;;;;;;;4.00;0.87;;;14.90;89.50;;;;;;5094016;28;20044;-75
2021/10/13 11:53:40;;;;;;;4.03;0.90;;;15.00;88.30;;;;;;5094369;28;20058;-77
2021/10/13 11:56:10;;;;;;;6.00;1.20;;;14.80;87.60;;;;;;5094422;28;20463;-80
2021/10/13 11:58:35;;;;;;;3.00;0.70;;;14.80;88.00;;;;;;5092858;28;20062;-79
2021/10/13 12:01:01;;;;;;;5.00;0.70;;;14.50;88.10;;;;;;5094072;28;20048;-79
2021/10/13 12:03:29;;;;;;;3.43;0.83;;;14.30;89.20;;;;;;5092212;28;20118;-78
2021/10/13 12:05:59;;;;;;;2.77;0.87;;;14.10;90.20;;;;;;5092608;28;20040;-78
